sensor_id;sensor_type;location;lat;lon;timestamp;P1;durP1;ratioP1;P2;durP2;ratioP2
72286;SDS011;60221;45.696;16.076;2023-04-06T00:00:25;16.50;;;5.30;;
72286;SDS011;60221;45.696;16.076;2023-04-06T00:02:52;14.00;;;4.90;;
72286;SDS011;60221;45.696;16.076;2023-04-06T00:05:19;17.30;;;5.50;;
72286;SDS011;60221;45.696;16.076;2023-04-06T00:07:46;19.20;;;5.30;;
72286;SDS011;60221;45.696;16.076;2023-04-06T00:10:13;17.50;;;4.70;;
72286;SDS011;60221;45.696;16.076;2023-04-06T00:12:40;13.70;;;4.50;;
72286;SDS011;60221;45.696;16.076;2023-04-06T00:15:07;13.10;;;4.00;;
72286;SDS011;60221;45.696;16.076;2023-04-06T00:17:34;11.70;;;3.50;;
72286;SDS011;60221;45.696;16.076;2023-04-06T00:20:01;15.90;;;4.80;;
72286;SDS011;60221;45.696;16.076;2023-04-06T00:22:27;15.20;;;4.80;;
72286;SDS011;60221;45.696;16.076;2023-04-06T00:24:54;12.80;;;3.80;;
72286;SDS011;60221;45.696;16.076;2023-04-06T00:27:21;13.80;;;4.40;;
72286;SDS011;60221;45.696;16.076;2023-04-06T00:29:48;14.40;;;4.40;;
72286;SDS011;60221;45.696;16.076;2023-04-06T00:32:14;11.30;;;3.90;;
72286;SDS011;60221;45.696;16.076;2023-04-06T00:34:41;13.20;;;3.90;;
72286;SDS011;60221;45.696;16.076;2023-04-06T00:37:08;11.00;;;3.40;;
72286;SDS011;60221;45.696;16.076;2023-04-06T00:39:35;19.60;;;7.20;;
72286;SDS011;60221;45.696;16.076;2023-04-06T00:42:01;50.00;;;18.60;;
72286;SDS011;60221;45.696;16.076;2023-04-06T00:44:33;36.10;;;13.50;;
72286;SDS011;60221;45.696;16.076;2023-04-06T00:47:00;15.80;;;7.10;;
72286;SDS011;60221;45.696;16.076;2023-04-06T00:49:27;13.10;;;5.70;;
72286;SDS011;60221;45.696;16.076;2023-04-06T00:51:54;9.30;;;3.70;;
72286;SDS011;60221;45.696;16.076;2023-04-06T00:54:21;8.40;;;2.90;;
72286;SDS011;60221;45.696;16.076;2023-04-06T00:56:47;9.00;;;2.50;;
72286;SDS011;60221;45.696;16.076;2023-04-06T00:59:14;8.70;;;3.50;;
72286;SDS011;60221;45.696;16.076;2023-04-06T01:01:42;11.40;;;4.80;;
72286;SDS011;60221;45.696;16.076;2023-04-06T01:04:22;11.90;;;5.00;;
72286;SDS011;60221;45.696;16.076;2023-04-06T01:06:50;12.80;;;3.60;;
72286;SDS011;60221;45.696;16.076;2023-04-06T01:09:17;10.20;;;3.30;;
72286;SDS011;60221;45.696;16.076;2023-04-06T01:11:44;7.90;;;2.80;;
72286;SDS011;60221;45.696;16.076;2023-04-06T01:14:13;12.90;;;2.60;;
72286;SDS011;60221;45.696;16.076;2023-04-06T01:16:54;6.80;;;2.10;;
72286;SDS011;60221;45.696;16.076;2023-04-06T01:19:26;8.20;;;3.10;;
72286;SDS011;60221;45.696;16.076;2023-04-06T01:21:53;10.30;;;2.70;;
72286;SDS011;60221;45.696;16.076;2023-04-06T01:24:29;9.40;;;3.00;;
72286;SDS011;60221;45.696;16.076;2023-04-06T01:27:03;12.60;;;3.30;;
72286;SDS011;60221;45.696;16.076;2023-04-06T01:29:59;6.10;;;2.10;;
72286;SDS011;60221;45.696;16.076;2023-04-06T01:32:55;8.00;;;2.20;;
72286;SDS011;60221;45.696;16.076;2023-04-06T01:35:40;10.40;;;3.50;;
72286;SDS011;60221;45.696;16.076;2023-04-06T01:38:13;10.70;;;3.60;;
72286;SDS011;60221;45.696;16.076;2023-04-06T01:40:42;8.30;;;2.90;;
72286;SDS011;60221;45.696;16.076;2023-04-06T01:43:09;10.10;;;3.40;;
72286;SDS011;60221;45.696;16.076;2023-04-06T01:45:55;13.80;;;3.40;;
72286;SDS011;60221;45.696;16.076;2023-04-06T01:48:22;11.90;;;3.40;;
72286;SDS011;60221;45.696;16.076;2023-04-06T01:50:49;11.70;;;3.60;;
72286;SDS011;60221;45.696;16.076;2023-04-06T01:53:19;11.60;;;4.20;;
72286;SDS011;60221;45.696;16.076;2023-04-06T01:55:46;13.30;;;3.90;;
72286;SDS011;60221;45.696;16.076;2023-04-06T01:58:23;11.00;;;3.20;;
72286;SDS011;60221;45.696;16.076;2023-04-06T02:00:50;8.50;;;2.80;;
72286;SDS011;60221;45.696;16.076;2023-04-06T02:03:17;10.40;;;3.80;;
72286;SDS011;60221;45.696;16.076;2023-04-06T02:05:44;11.40;;;3.90;;
72286;SDS011;60221;45.696;16.076;2023-04-06T02:08:22;16.00;;;4.90;;
72286;SDS011;60221;45.696;16.076;2023-04-06T02:10:49;14.40;;;4.70;;
72286;SDS011;60221;45.696;16.076;2023-04-06T02:13:23;13.40;;;4.30;;
72286;SDS011;60221;45.696;16.076;2023-04-06T02:15:51;12.90;;;4.60;;
72286;SDS011;60221;45.696;16.076;2023-04-06T02:18:19;11.80;;;4.10;;
72286;SDS011;60221;45.696;16.076;2023-04-06T02:20:45;14.10;;;5.10;;
72286;SDS011;60221;45.696;16.076;2023-04-06T02:23:12;14.40;;;5.10;;
72286;SDS011;60221;45.696;16.076;2023-04-06T02:25:39;13.20;;;4.50;;
72286;SDS011;60221;45.696;16.076;2023-04-06T02:28:06;14.50;;;4.80;;
72286;SDS011;60221;45.696;16.076;2023-04-06T02:30:34;13.90;;;4.90;;
72286;SDS011;60221;45.696;16.076;2023-04-06T02:33:01;13.00;;;4.80;;
72286;SDS011;60221;45.696;16.076;2023-04-06T02:35:31;14.80;;;4.90;;
72286;SDS011;60221;45.696;16.076;2023-04-06T02:37:59;14.40;;;4.40;;
72286;SDS011;60221;45.696;16.076;2023-04-06T02:40:25;13.30;;;4.60;;
72286;SDS011;60221;45.696;16.076;2023-04-06T02:42:52;15.40;;;5.50;;
72286;SDS011;60221;45.696;16.076;2023-04-06T02:45:25;14.40;;;5.30;;
72286;SDS011;60221;45.696;16.076;2023-04-06T02:47:53;16.10;;;6.10;;
72286;SDS011;60221;45.696;16.076;2023-04-06T02:50:21;20.10;;;6.70;;
72286;SDS011;60221;45.696;16.076;2023-04-06T02:52:54;14.40;;;5.50;;
72286;SDS011;60221;45.696;16.076;2023-04-06T02:55:21;41.40;;;17.70;;
72286;SDS011;60221;45.696;16.076;2023-04-06T02:57:48;76.30;;;34.60;;
72286;SDS011;60221;45.696;16.076;2023-04-06T03:00:15;41.80;;;17.30;;
72286;SDS011;60221;45.696;16.076;2023-04-06T03:02:42;22.40;;;9.50;;
72286;SDS011;60221;45.696;16.076;2023-04-06T03:05:12;19.40;;;7.70;;
72286;SDS011;60221;45.696;16.076;2023-04-06T03:07:41;16.00;;;6.20;;
72286;SDS011;60221;45.696;16.076;2023-04-06T03:10:12;13.70;;;4.70;;
72286;SDS011;60221;45.696;16.076;2023-04-06T03:12:39;13.70;;;5.00;;
72286;SDS011;60221;45.696;16.076;2023-04-06T03:15:14;13.30;;;4.70;;
72286;SDS011;60221;45.696;16.076;2023-04-06T03:17:44;13.40;;;3.70;;
72286;SDS011;60221;45.696;16.076;2023-04-06T03:20:22;10.30;;;3.40;;
72286;SDS011;60221;45.696;16.076;2023-04-06T03:22:49;11.90;;;4.40;;
72286;SDS011;60221;45.696;16.076;2023-04-06T03:25:16;12.00;;;3.50;;
72286;SDS011;60221;45.696;16.076;2023-04-06T03:27:43;12.20;;;3.40;;
72286;SDS011;60221;45.696;16.076;2023-04-06T03:30:12;9.70;;;3.20;;
72286;SDS011;60221;45.696;16.076;2023-04-06T03:32:39;10.50;;;3.90;;
72286;SDS011;60221;45.696;16.076;2023-04-06T03:35:06;12.80;;;3.50;;
72286;SDS011;60221;45.696;16.076;2023-04-06T03:37:32;11.60;;;3.70;;
72286;SDS011;60221;45.696;16.076;2023-04-06T03:40:01;11.00;;;3.60;;
72286;SDS011;60221;45.696;16.076;2023-04-06T03:42:28;12.90;;;3.80;;
72286;SDS011;60221;45.696;16.076;2023-04-06T03:45:00;11.50;;;3.50;;
72286;SDS011;60221;45.696;16.076;2023-04-06T03:47:27;8.90;;;2.90;;
72286;SDS011;60221;45.696;16.076;2023-04-06T03:49:57;29.90;;;8.00;;
72286;SDS011;60221;45.696;16.076;2023-04-06T03:52:23;64.70;;;17.80;;
72286;SDS011;60221;45.696;16.076;2023-04-06T03:54:50;69.50;;;21.20;;
72286;SDS011;60221;45.696;16.076;2023-04-06T03:57:17;47.60;;;14.80;;
72286;SDS011;60221;45.696;16.076;2023-04-06T03:59:44;24.80;;;11.00;;
72286;SDS011;60221;45.696;16.076;2023-04-06T04:02:11;20.90;;;8.10;;
72286;SDS011;60221;45.696;16.076;2023-04-06T04:04:38;15.80;;;5.60;;
72286;SDS011;60221;45.696;16.076;2023-04-06T04:07:05;18.40;;;7.40;;
72286;SDS011;60221;45.696;16.076;2023-04-06T04:09:31;24.70;;;11.60;;
72286;SDS011;60221;45.696;16.076;2023-04-06T04:11:58;20.50;;;9.50;;
72286;SDS011;60221;45.696;16.076;2023-04-06T04:14:25;12.30;;;5.70;;
72286;SDS011;60221;45.696;16.076;2023-04-06T04:16:52;14.10;;;4.20;;
72286;SDS011;60221;45.696;16.076;2023-04-06T04:19:19;23.20;;;9.00;;
72286;SDS011;60221;45.696;16.076;2023-04-06T04:21:46;14.00;;;5.20;;
72286;SDS011;60221;45.696;16.076;2023-04-06T04:24:16;12.10;;;4.20;;
72286;SDS011;60221;45.696;16.076;2023-04-06T04:26:43;17.50;;;5.00;;
72286;SDS011;60221;45.696;16.076;2023-04-06T04:29:10;12.80;;;4.80;;
72286;SDS011;60221;45.696;16.076;2023-04-06T04:31:37;11.70;;;4.40;;
72286;SDS011;60221;45.696;16.076;2023-04-06T04:34:10;11.00;;;3.20;;
72286;SDS011;60221;45.696;16.076;2023-04-06T04:36:37;9.40;;;3.40;;
72286;SDS011;60221;45.696;16.076;2023-04-06T04:39:05;11.20;;;4.30;;
72286;SDS011;60221;45.696;16.076;2023-04-06T04:41:35;11.30;;;3.40;;
72286;SDS011;60221;45.696;16.076;2023-04-06T04:44:05;10.50;;;3.80;;
72286;SDS011;60221;45.696;16.076;2023-04-06T04:46:32;12.50;;;3.50;;
72286;SDS011;60221;45.696;16.076;2023-04-06T04:48:59;12.10;;;4.10;;
72286;SDS011;60221;45.696;16.076;2023-04-06T04:51:26;13.90;;;5.10;;
72286;SDS011;60221;45.696;16.076;2023-04-06T04:54:02;11.70;;;3.80;;
72286;SDS011;60221;45.696;16.076;2023-04-06T04:56:30;12.70;;;3.80;;
72286;SDS011;60221;45.696;16.076;2023-04-06T04:59:20;10.10;;;3.40;;
72286;SDS011;60221;45.696;16.076;2023-04-06T05:01:52;12.70;;;3.90;;
72286;SDS011;60221;45.696;16.076;2023-04-06T05:04:26;14.40;;;3.70;;
72286;SDS011;60221;45.696;16.076;2023-04-06T05:09:31;11.70;;;3.50;;
72286;SDS011;60221;45.696;16.076;2023-04-06T05:11:58;8.60;;;3.00;;
72286;SDS011;60221;45.696;16.076;2023-04-06T05:14:25;11.30;;;3.70;;
72286;SDS011;60221;45.696;16.076;2023-04-06T05:16:54;11.60;;;3.90;;
72286;SDS011;60221;45.696;16.076;2023-04-06T05:19:23;14.60;;;4.20;;
72286;SDS011;60221;45.696;16.076;2023-04-06T05:21:49;10.50;;;4.10;;
72286;SDS011;60221;45.696;16.076;2023-04-06T05:24:17;19.00;;;8.80;;
72286;SDS011;60221;45.696;16.076;2023-04-06T05:26:44;13.80;;;6.60;;
72286;SDS011;60221;45.696;16.076;2023-04-06T05:29:17;12.20;;;6.20;;
72286;SDS011;60221;45.696;16.076;2023-04-06T05:31:45;17.40;;;7.30;;
72286;SDS011;60221;45.696;16.076;2023-04-06T05:34:12;35.00;;;14.00;;
72286;SDS011;60221;45.696;16.076;2023-04-06T05:36:39;24.50;;;10.40;;
72286;SDS011;60221;45.696;16.076;2023-04-06T05:39:15;20.40;;;9.20;;
72286;SDS011;60221;45.696;16.076;2023-04-06T05:41:48;17.90;;;7.90;;
72286;SDS011;60221;45.696;16.076;2023-04-06T05:44:20;15.70;;;6.50;;
72286;SDS011;60221;45.696;16.076;2023-04-06T05:46:51;16.10;;;6.60;;
72286;SDS011;60221;45.696;16.076;2023-04-06T05:49:17;14.10;;;5.90;;
72286;SDS011;60221;45.696;16.076;2023-04-06T05:51:44;15.10;;;5.70;;
72286;SDS011;60221;45.696;16.076;2023-04-06T05:54:11;14.80;;;5.50;;
72286;SDS011;60221;45.696;16.076;2023-04-06T05:56:38;15.00;;;4.80;;
72286;SDS011;60221;45.696;16.076;2023-04-06T05:59:07;13.10;;;5.10;;
72286;SDS011;60221;45.696;16.076;2023-04-06T06:01:34;11.60;;;5.00;;
72286;SDS011;60221;45.696;16.076;2023-04-06T06:04:01;16.80;;;5.60;;
72286;SDS011;60221;45.696;16.076;2023-04-06T06:06:30;11.80;;;5.00;;
72286;SDS011;60221;45.696;16.076;2023-04-06T06:09:10;12.10;;;5.50;;
72286;SDS011;60221;45.696;16.076;2023-04-06T06:11:43;15.30;;;5.30;;
72286;SDS011;60221;45.696;16.076;2023-04-06T06:14:11;15.60;;;5.80;;
72286;SDS011;60221;45.696;16.076;2023-04-06T06:16:38;15.00;;;5.40;;
72286;SDS011;60221;45.696;16.076;2023-04-06T06:19:05;15.40;;;5.50;;
72286;SDS011;60221;45.696;16.076;2023-04-06T06:21:32;15.40;;;6.70;;
72286;SDS011;60221;45.696;16.076;2023-04-06T06:23:59;13.80;;;6.00;;
72286;SDS011;60221;45.696;16.076;2023-04-06T06:26:26;15.10;;;6.40;;
72286;SDS011;60221;45.696;16.076;2023-04-06T06:28:53;14.20;;;7.00;;
72286;SDS011;60221;45.696;16.076;2023-04-06T06:31:20;15.50;;;6.60;;
72286;SDS011;60221;45.696;16.076;2023-04-06T06:33:49;13.40;;;5.90;;
72286;SDS011;60221;45.696;16.076;2023-04-06T06:36:18;24.50;;;10.90;;
72286;SDS011;60221;45.696;16.076;2023-04-06T06:38:46;17.70;;;9.80;;
72286;SDS011;60221;45.696;16.076;2023-04-06T06:41:15;40.50;;;15.20;;
72286;SDS011;60221;45.696;16.076;2023-04-06T06:43:42;27.20;;;11.80;;
72286;SDS011;60221;45.696;16.076;2023-04-06T06:46:10;27.60;;;13.20;;
72286;SDS011;60221;45.696;16.076;2023-04-06T06:48:38;18.80;;;8.90;;
72286;SDS011;60221;45.696;16.076;2023-04-06T06:51:06;16.90;;;7.50;;
72286;SDS011;60221;45.696;16.076;2023-04-06T06:53:33;14.70;;;5.90;;
72286;SDS011;60221;45.696;16.076;2023-04-06T06:56:00;11.90;;;4.60;;
72286;SDS011;60221;45.696;16.076;2023-04-06T06:58:28;11.60;;;5.10;;
72286;SDS011;60221;45.696;16.076;2023-04-06T07:00:58;12.50;;;6.00;;
72286;SDS011;60221;45.696;16.076;2023-04-06T07:03:26;11.50;;;5.30;;
72286;SDS011;60221;45.696;16.076;2023-04-06T07:05:53;11.50;;;4.20;;
72286;SDS011;60221;45.696;16.076;2023-04-06T07:08:22;12.60;;;4.50;;
72286;SDS011;60221;45.696;16.076;2023-04-06T07:10:52;10.10;;;4.20;;
72286;SDS011;60221;45.696;16.076;2023-04-06T07:13:19;14.90;;;7.10;;
72286;SDS011;60221;45.696;16.076;2023-04-06T07:15:51;11.20;;;4.50;;
72286;SDS011;60221;45.696;16.076;2023-04-06T07:18:18;8.00;;;3.70;;
72286;SDS011;60221;45.696;16.076;2023-04-06T07:20:45;8.20;;;2.50;;
72286;SDS011;60221;45.696;16.076;2023-04-06T07:23:13;12.40;;;6.60;;
72286;SDS011;60221;45.696;16.076;2023-04-06T07:25:40;9.60;;;3.70;;
72286;SDS011;60221;45.696;16.076;2023-04-06T07:28:08;8.30;;;4.10;;
72286;SDS011;60221;45.696;16.076;2023-04-06T07:30:36;11.20;;;3.80;;
72286;SDS011;60221;45.696;16.076;2023-04-06T07:33:04;11.20;;;5.60;;
72286;SDS011;60221;45.696;16.076;2023-04-06T07:35:32;10.80;;;4.30;;
72286;SDS011;60221;45.696;16.076;2023-04-06T07:37:59;9.00;;;3.90;;
72286;SDS011;60221;45.696;16.076;2023-04-06T07:40:26;10.20;;;3.60;;
72286;SDS011;60221;45.696;16.076;2023-04-06T07:42:53;7.90;;;3.10;;
72286;SDS011;60221;45.696;16.076;2023-04-06T07:45:23;10.70;;;4.50;;
72286;SDS011;60221;45.696;16.076;2023-04-06T07:47:50;13.60;;;5.60;;
72286;SDS011;60221;45.696;16.076;2023-04-06T07:50:17;12.80;;;5.30;;
72286;SDS011;60221;45.696;16.076;2023-04-06T07:52:44;10.60;;;4.30;;
72286;SDS011;60221;45.696;16.076;2023-04-06T07:55:11;13.40;;;7.20;;
72286;SDS011;60221;45.696;16.076;2023-04-06T07:57:38;11.60;;;4.50;;
72286;SDS011;60221;45.696;16.076;2023-04-06T08:00:04;10.60;;;4.10;;
72286;SDS011;60221;45.696;16.076;2023-04-06T08:02:37;9.00;;;3.60;;
72286;SDS011;60221;45.696;16.076;2023-04-06T08:05:04;13.00;;;5.40;;
72286;SDS011;60221;45.696;16.076;2023-04-06T08:07:31;8.50;;;4.00;;
72286;SDS011;60221;45.696;16.076;2023-04-06T08:09:58;7.40;;;2.60;;
72286;SDS011;60221;45.696;16.076;2023-04-06T08:12:25;6.80;;;2.00;;
72286;SDS011;60221;45.696;16.076;2023-04-06T08:14:52;5.20;;;1.40;;
72286;SDS011;60221;45.696;16.076;2023-04-06T08:17:18;5.40;;;1.40;;
72286;SDS011;60221;45.696;16.076;2023-04-06T08:19:45;6.70;;;2.50;;
72286;SDS011;60221;45.696;16.076;2023-04-06T08:22:12;8.60;;;2.20;;
72286;SDS011;60221;45.696;16.076;2023-04-06T08:24:39;9.60;;;2.40;;
72286;SDS011;60221;45.696;16.076;2023-04-06T08:27:06;6.60;;;1.60;;
72286;SDS011;60221;45.696;16.076;2023-04-06T08:29:33;9.40;;;5.30;;
72286;SDS011;60221;45.696;16.076;2023-04-06T08:31:59;7.50;;;2.50;;
72286;SDS011;60221;45.696;16.076;2023-04-06T08:34:26;9.50;;;2.60;;
72286;SDS011;60221;45.696;16.076;2023-04-06T08:36:53;8.90;;;2.10;;
72286;SDS011;60221;45.696;16.076;2023-04-06T08:39:20;6.90;;;2.00;;
72286;SDS011;60221;45.696;16.076;2023-04-06T08:41:52;6.60;;;2.10;;
72286;SDS011;60221;45.696;16.076;2023-04-06T08:44:19;7.50;;;2.40;;
72286;SDS011;60221;45.696;16.076;2023-04-06T08:46:46;7.00;;;2.00;;
72286;SDS011;60221;45.696;16.076;2023-04-06T08:49:13;5.60;;;2.00;;
72286;SDS011;60221;45.696;16.076;2023-04-06T08:51:40;7.90;;;2.10;;
72286;SDS011;60221;45.696;16.076;2023-04-06T08:54:08;6.30;;;2.20;;
72286;SDS011;60221;45.696;16.076;2023-04-06T08:56:37;5.50;;;1.60;;
72286;SDS011;60221;45.696;16.076;2023-04-06T08:59:04;7.60;;;2.00;;
72286;SDS011;60221;45.696;16.076;2023-04-06T09:01:31;7.10;;;2.90;;
72286;SDS011;60221;45.696;16.076;2023-04-06T09:04:00;6.20;;;2.00;;
72286;SDS011;60221;45.696;16.076;2023-04-06T09:06:27;5.30;;;2.00;;
72286;SDS011;60221;45.696;16.076;2023-04-06T09:08:54;10.10;;;3.60;;
72286;SDS011;60221;45.696;16.076;2023-04-06T09:11:21;7.30;;;3.10;;
72286;SDS011;60221;45.696;16.076;2023-04-06T09:13:48;6.20;;;2.30;;
72286;SDS011;60221;45.696;16.076;2023-04-06T09:16:17;6.20;;;1.90;;
72286;SDS011;60221;45.696;16.076;2023-04-06T09:18:44;7.00;;;2.60;;
72286;SDS011;60221;45.696;16.076;2023-04-06T09:21:11;7.40;;;3.60;;
72286;SDS011;60221;45.696;16.076;2023-04-06T09:23:38;6.50;;;2.00;;
72286;SDS011;60221;45.696;16.076;2023-04-06T09:26:06;5.50;;;2.00;;
72286;SDS011;60221;45.696;16.076;2023-04-06T09:28:49;7.20;;;2.30;;
72286;SDS011;60221;45.696;16.076;2023-04-06T09:31:26;14.20;;;5.80;;
72286;SDS011;60221;45.696;16.076;2023-04-06T09:33:53;9.00;;;4.10;;
72286;SDS011;60221;45.696;16.076;2023-04-06T09:36:29;6.60;;;2.50;;
72286;SDS011;60221;45.696;16.076;2023-04-06T09:38:57;6.00;;;2.20;;
72286;SDS011;60221;45.696;16.076;2023-04-06T09:43:51;7.70;;;1.80;;
72286;SDS011;60221;45.696;16.076;2023-04-06T09:46:20;5.40;;;2.00;;
72286;SDS011;60221;45.696;16.076;2023-04-06T09:48:47;6.20;;;1.60;;
72286;SDS011;60221;45.696;16.076;2023-04-06T09:51:16;5.60;;;1.80;;
72286;SDS011;60221;45.696;16.076;2023-04-06T09:53:44;5.20;;;1.70;;
72286;SDS011;60221;45.696;16.076;2023-04-06T09:56:16;5.40;;;1.50;;
72286;SDS011;60221;45.696;16.076;2023-04-06T09:58:44;4.20;;;1.00;;
72286;SDS011;60221;45.696;16.076;2023-04-06T10:01:15;5.50;;;1.40;;
72286;SDS011;60221;45.696;16.076;2023-04-06T10:06:13;6.10;;;2.00;;
72286;SDS011;60221;45.696;16.076;2023-04-06T10:08:40;4.90;;;1.90;;
72286;SDS011;60221;45.696;16.076;2023-04-06T10:11:08;6.20;;;2.00;;
72286;SDS011;60221;45.696;16.076;2023-04-06T10:13:35;5.90;;;1.60;;
72286;SDS011;60221;45.696;16.076;2023-04-06T10:16:02;6.50;;;1.70;;
72286;SDS011;60221;45.696;16.076;2023-04-06T10:18:30;6.40;;;2.60;;
72286;SDS011;60221;45.696;16.076;2023-04-06T10:21:01;5.50;;;1.80;;
72286;SDS011;60221;45.696;16.076;2023-04-06T10:23:32;7.50;;;1.80;;
72286;SDS011;60221;45.696;16.076;2023-04-06T10:26:00;7.20;;;1.90;;
72286;SDS011;60221;45.696;16.076;2023-04-06T10:28:34;6.10;;;1.20;;
72286;SDS011;60221;45.696;16.076;2023-04-06T10:31:05;5.70;;;1.40;;
72286;SDS011;60221;45.696;16.076;2023-04-06T10:33:32;6.80;;;2.00;;
72286;SDS011;60221;45.696;16.076;2023-04-06T10:36:09;5.20;;;1.90;;
72286;SDS011;60221;45.696;16.076;2023-04-06T10:38:37;7.70;;;2.60;;
72286;SDS011;60221;45.696;16.076;2023-04-06T10:41:10;5.70;;;1.80;;
72286;SDS011;60221;45.696;16.076;2023-04-06T10:43:38;5.30;;;1.30;;
72286;SDS011;60221;45.696;16.076;2023-04-06T10:46:08;4.80;;;1.60;;
72286;SDS011;60221;45.696;16.076;2023-04-06T10:48:41;7.80;;;1.90;;
72286;SDS011;60221;45.696;16.076;2023-04-06T10:51:10;7.20;;;2.00;;
72286;SDS011;60221;45.696;16.076;2023-04-06T10:53:37;6.40;;;1.80;;
72286;SDS011;60221;45.696;16.076;2023-04-06T10:56:04;5.40;;;1.40;;
72286;SDS011;60221;45.696;16.076;2023-04-06T10:58:36;4.40;;;1.50;;
72286;SDS011;60221;45.696;16.076;2023-04-06T11:01:03;3.90;;;1.10;;
72286;SDS011;60221;45.696;16.076;2023-04-06T11:03:30;4.90;;;1.10;;
72286;SDS011;60221;45.696;16.076;2023-04-06T11:05:58;3.90;;;0.80;;
72286;SDS011;60221;45.696;16.076;2023-04-06T11:08:26;7.50;;;1.40;;
72286;SDS011;60221;45.696;16.076;2023-04-06T11:13:42;3.80;;;1.00;;
72286;SDS011;60221;45.696;16.076;2023-04-06T11:16:13;4.30;;;1.00;;
72286;SDS011;60221;45.696;16.076;2023-04-06T11:21:19;3.40;;;1.00;;
72286;SDS011;60221;45.696;16.076;2023-04-06T11:23:46;9.10;;;3.60;;
72286;SDS011;60221;45.696;16.076;2023-04-06T11:26:14;9.30;;;2.90;;
72286;SDS011;60221;45.696;16.076;2023-04-06T11:28:41;4.90;;;1.20;;
72286;SDS011;60221;45.696;16.076;2023-04-06T11:31:09;14.60;;;5.60;;
72286;SDS011;60221;45.696;16.076;2023-04-06T11:33:36;5.70;;;1.90;;
72286;SDS011;60221;45.696;16.076;2023-04-06T11:36:04;4.80;;;0.80;;
72286;SDS011;60221;45.696;16.076;2023-04-06T11:38:32;6.10;;;1.00;;
72286;SDS011;60221;45.696;16.076;2023-04-06T11:41:00;4.40;;;1.00;;
72286;SDS011;60221;45.696;16.076;2023-04-06T11:43:30;4.50;;;1.10;;
72286;SDS011;60221;45.696;16.076;2023-04-06T11:46:01;5.80;;;2.10;;
72286;SDS011;60221;45.696;16.076;2023-04-06T11:48:29;4.90;;;1.20;;
72286;SDS011;60221;45.696;16.076;2023-04-06T11:50:56;4.00;;;0.90;;
72286;SDS011;60221;45.696;16.076;2023-04-06T11:53:24;8.60;;;2.90;;
72286;SDS011;60221;45.696;16.076;2023-04-06T11:55:51;4.40;;;1.10;;
72286;SDS011;60221;45.696;16.076;2023-04-06T11:58:18;20.30;;;7.20;;
72286;SDS011;60221;45.696;16.076;2023-04-06T12:00:44;22.20;;;7.60;;
72286;SDS011;60221;45.696;16.076;2023-04-06T12:03:13;8.00;;;2.70;;
72286;SDS011;60221;45.696;16.076;2023-04-06T12:05:40;4.90;;;1.40;;
72286;SDS011;60221;45.696;16.076;2023-04-06T12:08:07;5.00;;;1.10;;
72286;SDS011;60221;45.696;16.076;2023-04-06T12:10:34;13.00;;;5.30;;
72286;SDS011;60221;45.696;16.076;2023-04-06T12:13:01;5.90;;;1.70;;
72286;SDS011;60221;45.696;16.076;2023-04-06T12:15:27;5.80;;;1.50;;
72286;SDS011;60221;45.696;16.076;2023-04-06T12:17:54;4.40;;;1.10;;
72286;SDS011;60221;45.696;16.076;2023-04-06T12:20:21;4.50;;;0.90;;
72286;SDS011;60221;45.696;16.076;2023-04-06T12:22:52;4.10;;;1.00;;
72286;SDS011;60221;45.696;16.076;2023-04-06T12:25:19;4.70;;;1.10;;
72286;SDS011;60221;45.696;16.076;2023-04-06T12:27:47;4.20;;;1.00;;
72286;SDS011;60221;45.696;16.076;2023-04-06T12:30:13;4.60;;;1.50;;
72286;SDS011;60221;45.696;16.076;2023-04-06T12:32:40;5.80;;;0.70;;
72286;SDS011;60221;45.696;16.076;2023-04-06T12:35:08;3.90;;;0.80;;
72286;SDS011;60221;45.696;16.076;2023-04-06T12:37:35;5.00;;;1.50;;
72286;SDS011;60221;45.696;16.076;2023-04-06T12:40:03;5.20;;;1.80;;
72286;SDS011;60221;45.696;16.076;2023-04-06T12:42:30;4.50;;;1.20;;
72286;SDS011;60221;45.696;16.076;2023-04-06T12:44:57;4.70;;;0.90;;
72286;SDS011;60221;45.696;16.076;2023-04-06T12:47:25;3.80;;;0.60;;
72286;SDS011;60221;45.696;16.076;2023-04-06T12:49:53;5.60;;;0.80;;
72286;SDS011;60221;45.696;16.076;2023-04-06T12:52:20;5.80;;;1.30;;
72286;SDS011;60221;45.696;16.076;2023-04-06T12:54:47;5.40;;;2.10;;
72286;SDS011;60221;45.696;16.076;2023-04-06T12:57:16;4.10;;;1.10;;
72286;SDS011;60221;45.696;16.076;2023-04-06T12:59:43;5.40;;;1.50;;
72286;SDS011;60221;45.696;16.076;2023-04-06T13:02:11;4.20;;;0.90;;
72286;SDS011;60221;45.696;16.076;2023-04-06T13:04:38;5.70;;;2.10;;
72286;SDS011;60221;45.696;16.076;2023-04-06T13:07:05;5.00;;;1.10;;
72286;SDS011;60221;45.696;16.076;2023-04-06T13:09:32;4.20;;;1.10;;
72286;SDS011;60221;45.696;16.076;2023-04-06T13:11:58;6.60;;;3.00;;
72286;SDS011;60221;45.696;16.076;2023-04-06T13:14:25;5.90;;;2.00;;
72286;SDS011;60221;45.696;16.076;2023-04-06T13:16:52;4.70;;;1.00;;
72286;SDS011;60221;45.696;16.076;2023-04-06T13:19:19;5.20;;;1.20;;
72286;SDS011;60221;45.696;16.076;2023-04-06T13:21:46;5.30;;;1.00;;
72286;SDS011;60221;45.696;16.076;2023-04-06T13:24:13;4.30;;;0.90;;
72286;SDS011;60221;45.696;16.076;2023-04-06T13:26:43;5.60;;;1.10;;
72286;SDS011;60221;45.696;16.076;2023-04-06T13:29:09;3.90;;;1.10;;
72286;SDS011;60221;45.696;16.076;2023-04-06T13:31:36;4.40;;;1.50;;
72286;SDS011;60221;45.696;16.076;2023-04-06T13:34:03;4.70;;;1.10;;
72286;SDS011;60221;45.696;16.076;2023-04-06T13:36:30;6.00;;;1.20;;
72286;SDS011;60221;45.696;16.076;2023-04-06T13:38:58;4.40;;;1.10;;
72286;SDS011;60221;45.696;16.076;2023-04-06T13:41:25;6.10;;;1.60;;
72286;SDS011;60221;45.696;16.076;2023-04-06T13:43:54;4.40;;;1.10;;
72286;SDS011;60221;45.696;16.076;2023-04-06T13:46:21;4.60;;;1.30;;
72286;SDS011;60221;45.696;16.076;2023-04-06T13:48:50;4.10;;;1.00;;
72286;SDS011;60221;45.696;16.076;2023-04-06T13:51:17;6.20;;;1.10;;
72286;SDS011;60221;45.696;16.076;2023-04-06T13:53:44;3.90;;;0.90;;
72286;SDS011;60221;45.696;16.076;2023-04-06T13:56:11;5.60;;;2.10;;
72286;SDS011;60221;45.696;16.076;2023-04-06T13:58:38;4.60;;;1.20;;
72286;SDS011;60221;45.696;16.076;2023-04-06T14:01:05;4.50;;;1.20;;
72286;SDS011;60221;45.696;16.076;2023-04-06T14:03:33;7.20;;;1.20;;
72286;SDS011;60221;45.696;16.076;2023-04-06T14:06:00;3.80;;;0.80;;
72286;SDS011;60221;45.696;16.076;2023-04-06T14:08:41;5.20;;;1.10;;
72286;SDS011;60221;45.696;16.076;2023-04-06T14:11:11;4.80;;;1.10;;
72286;SDS011;60221;45.696;16.076;2023-04-06T14:13:39;4.50;;;1.00;;
72286;SDS011;60221;45.696;16.076;2023-04-06T14:16:06;2.70;;;0.60;;
72286;SDS011;60221;45.696;16.076;2023-04-06T14:18:33;3.60;;;1.00;;
72286;SDS011;60221;45.696;16.076;2023-04-06T14:21:00;3.30;;;0.80;;
72286;SDS011;60221;45.696;16.076;2023-04-06T14:23:27;5.50;;;1.20;;
72286;SDS011;60221;45.696;16.076;2023-04-06T14:26:01;5.00;;;1.20;;
72286;SDS011;60221;45.696;16.076;2023-04-06T14:28:29;4.00;;;1.10;;
72286;SDS011;60221;45.696;16.076;2023-04-06T14:30:57;17.70;;;6.20;;
72286;SDS011;60221;45.696;16.076;2023-04-06T14:33:24;7.60;;;1.90;;
72286;SDS011;60221;45.696;16.076;2023-04-06T14:35:51;5.00;;;1.30;;
72286;SDS011;60221;45.696;16.076;2023-04-06T14:38:18;4.90;;;1.20;;
72286;SDS011;60221;45.696;16.076;2023-04-06T14:40:45;3.70;;;0.80;;
72286;SDS011;60221;45.696;16.076;2023-04-06T14:43:11;10.30;;;4.10;;
72286;SDS011;60221;45.696;16.076;2023-04-06T14:45:38;10.80;;;4.80;;
72286;SDS011;60221;45.696;16.076;2023-04-06T14:48:05;7.10;;;1.80;;